sensor_id;sensor_type;location;lat;lon;timestamp;pressure;altitude;pressure_sealevel;temperature;humidity
60087;BME280;45960;53.630;55.972;2023-05-23T00:00:23;101273.31;;;13.63;52.89
60087;BME280;45960;53.630;55.972;2023-05-23T00:01:24;101267.09;;;13.62;52.78
60087;BME280;45960;53.630;55.972;2023-05-23T00:02:25;101271.59;;;13.62;52.95
60087;BME280;45960;53.630;55.972;2023-05-23T00:03:26;101270.75;;;13.61;52.80
60087;BME280;45960;53.630;55.972;2023-05-23T00:04:28;101275.34;;;13.59;52.86
60087;BME280;45960;53.630;55.972;2023-05-23T00:05:30;101278.00;;;13.59;52.94
60087;BME280;45960;53.630;55.972;2023-05-23T00:06:31;101275.34;;;13.59;53.03
60087;BME280;45960;53.630;55.972;2023-05-23T00:07:34;101274.34;;;13.60;53.07
60087;BME280;45960;53.630;55.972;2023-05-23T00:08:35;101281.66;;;13.58;52.95
60087;BME280;45960;53.630;55.972;2023-05-23T00:09:36;101276.31;;;13.58;53.24
60087;BME280;45960;53.630;55.972;2023-05-23T00:10:37;101272.84;;;13.56;53.06
60087;BME280;45960;53.630;55.972;2023-05-23T00:11:38;101278.22;;;13.56;53.23
60087;BME280;45960;53.630;55.972;2023-05-23T00:12:39;101282.72;;;13.56;53.34
60087;BME280;45960;53.630;55.972;2023-05-23T00:13:42;101277.44;;;13.54;53.24
60087;BME280;45960;53.630;55.972;2023-05-23T00:14:43;101285.47;;;13.54;53.35
60087;BME280;45960;53.630;55.972;2023-05-23T00:15:45;101284.72;;;13.52;53.39
60087;BME280;45960;53.630;55.972;2023-05-23T00:16:46;101276.19;;;13.46;53.28
60087;BME280;45960;53.630;55.972;2023-05-23T00:17:49;101279.34;;;13.52;53.06
60087;BME280;45960;53.630;55.972;2023-05-23T00:18:50;101282.03;;;13.52;53.20
60087;BME280;45960;53.630;55.972;2023-05-23T00:19:51;101288.28;;;13.53;53.47
60087;BME280;45960;53.630;55.972;2023-05-23T00:20:52;101283.78;;;13.53;53.23
60087;BME280;45960;53.630;55.972;2023-05-23T00:21:53;101283.78;;;13.53;53.17
60087;BME280;45960;53.630;55.972;2023-05-23T00:22:58;101290.00;;;13.54;53.11
60087;BME280;45960;53.630;55.972;2023-05-23T00:23:59;101287.31;;;13.54;53.10
60087;BME280;45960;53.630;55.972;2023-05-23T00:25:02;101288.16;;;13.54;53.02
60087;BME280;45960;53.630;55.972;2023-05-23T00:26:05;101292.75;;;13.52;52.83
60087;BME280;45960;53.630;55.972;2023-05-23T00:27:07;101299.88;;;13.53;53.02
60087;BME280;45960;53.630;55.972;2023-05-23T00:28:08;101296.22;;;13.54;52.80
60087;BME280;45960;53.630;55.972;2023-05-23T00:29:09;101297.19;;;13.53;52.58
60087;BME280;45960;53.630;55.972;2023-05-23T00:30:15;101297.19;;;13.53;52.54
60087;BME280;45960;53.630;55.972;2023-05-23T00:31:16;101297.94;;;13.55;52.53
60087;BME280;45960;53.630;55.972;2023-05-23T00:32:18;101286.34;;;13.55;52.54
60087;BME280;45960;53.630;55.972;2023-05-23T00:33:19;101294.31;;;13.56;52.64
60087;BME280;45960;53.630;55.972;2023-05-23T00:34:22;101297.09;;;13.55;52.62
60087;BME280;45960;53.630;55.972;2023-05-23T00:35:23;101303.31;;;13.55;52.71
60087;BME280;45960;53.630;55.972;2023-05-23T00:36:25;101296.22;;;13.54;52.96
60087;BME280;45960;53.630;55.972;2023-05-23T00:37:26;101298.91;;;13.54;52.74
60087;BME280;45960;53.630;55.972;2023-05-23T00:38:28;101301.59;;;13.54;53.04
60087;BME280;45960;53.630;55.972;2023-05-23T00:39:29;101308.69;;;13.55;52.82
60087;BME280;45960;53.630;55.972;2023-05-23T00:40:31;101306.97;;;13.54;52.86
60087;BME280;45960;53.630;55.972;2023-05-23T00:41:32;101299.88;;;13.53;52.66
60087;BME280;45960;53.630;55.972;2023-05-23T00:42:33;101302.44;;;13.55;52.82
60087;BME280;45960;53.630;55.972;2023-05-23T00:43:34;101306.00;;;13.55;52.80
60087;BME280;45960;53.630;55.972;2023-05-23T00:44:35;101301.78;;;13.51;52.75
60087;BME280;45960;53.630;55.972;2023-05-23T00:45:37;101311.28;;;13.57;52.75
60087;BME280;45960;53.630;55.972;2023-05-23T00:46:39;101312.16;;;13.57;52.71
60087;BME280;45960;53.630;55.972;2023-05-23T00:47:45;101306.78;;;13.57;52.71
60087;BME280;45960;53.630;55.972;2023-05-23T00:48:47;101304.88;;;13.59;52.77
60087;BME280;45960;53.630;55.972;2023-05-23T00:49:48;101309.38;;;13.59;52.59
60087;BME280;45960;53.630;55.972;2023-05-23T00:50:49;101311.94;;;13.60;52.43
60087;BME280;45960;53.630;55.972;2023-05-23T00:51:50;101312.81;;;13.61;52.47
60087;BME280;45960;53.630;55.972;2023-05-23T00:52:52;101306.59;;;13.60;52.42
60087;BME280;45960;53.630;55.972;2023-05-23T00:53:53;101301.41;;;13.57;52.25
60087;BME280;45960;53.630;55.972;2023-05-23T00:54:54;101306.38;;;13.63;52.49
60087;BME280;45960;53.630;55.972;2023-05-23T00:55:56;101312.53;;;13.65;52.40
60087;BME280;45960;53.630;55.972;2023-05-23T00:56:57;101310.72;;;13.66;52.39
60087;BME280;45960;53.630;55.972;2023-05-23T00:57:59;101316.94;;;13.66;52.33
60087;BME280;45960;53.630;55.972;2023-05-23T00:59:00;101315.03;;;13.69;52.50
60087;BME280;45960;53.630;55.972;2023-05-23T01:00:02;101325.78;;;13.69;52.49
60087;BME280;45960;53.630;55.972;2023-05-23T01:01:07;101320.50;;;13.67;52.43
60087;BME280;45960;53.630;55.972;2023-05-23T01:02:09;101322.31;;;13.66;52.26
60087;BME280;45960;53.630;55.972;2023-05-23T01:03:10;101317.72;;;13.69;52.23
60087;BME280;45960;53.630;55.972;2023-05-23T01:04:18;101330.28;;;13.68;52.48
60087;BME280;45960;53.630;55.972;2023-05-23T01:05:20;101320.59;;;13.65;52.40
60087;BME280;45960;53.630;55.972;2023-05-23T01:06:24;101330.22;;;13.70;52.61
60087;BME280;45960;53.630;55.972;2023-05-23T01:07:25;101324.91;;;13.68;52.49
60087;BME280;45960;53.630;55.972;2023-05-23T01:08:28;101326.63;;;13.69;52.60
60087;BME280;45960;53.630;55.972;2023-05-23T01:09:29;101323.88;;;13.71;52.68
60087;BME280;45960;53.630;55.972;2023-05-23T01:10:31;101330.88;;;13.73;52.77
60087;BME280;45960;53.630;55.972;2023-05-23T01:13:25;101329.25;;;13.71;52.86
60087;BME280;45960;53.630;55.972;2023-05-23T01:14:44;101332.88;;;13.70;52.90
60087;BME280;45960;53.630;55.972;2023-05-23T01:16:08;101332.88;;;13.70;53.03
60087;BME280;45960;53.630;55.972;2023-05-23T01:17:16;101332.88;;;13.70;52.97
60087;BME280;45960;53.630;55.972;2023-05-23T01:18:25;101330.94;;;13.72;52.88
60087;BME280;45960;53.630;55.972;2023-05-23T01:19:50;101329.03;;;13.74;52.74
60087;BME280;45960;53.630;55.972;2023-05-23T01:21:02;101335.28;;;13.74;52.87
60087;BME280;45960;53.630;55.972;2023-05-23T01:22:15;101337.88;;;13.76;53.09
60087;BME280;45960;53.630;55.972;2023-05-23T01:28:04;101337.97;;;13.88;53.37
60087;BME280;45960;53.630;55.972;2023-05-23T01:29:13;101342.28;;;13.91;53.42
60087;BME280;45960;53.630;55.972;2023-05-23T01:30:19;101341.22;;;13.94;53.40
60087;BME280;45960;53.630;55.972;2023-05-23T01:31:23;101347.28;;;13.97;53.58
60087;BME280;45960;53.630;55.972;2023-05-23T01:32:27;101345.38;;;13.99;53.39
60087;BME280;45960;53.630;55.972;2023-05-23T01:33:31;101344.22;;;14.03;53.31
60087;BME280;45960;53.630;55.972;2023-05-23T01:34:34;101347.56;;;14.07;53.34
60087;BME280;45960;53.630;55.972;2023-05-23T01:35:35;101340.50;;;14.06;53.68
60087;BME280;45960;53.630;55.972;2023-05-23T01:36:42;101343.63;;;14.13;53.79
60087;BME280;45960;53.630;55.972;2023-05-23T01:37:43;101351.50;;;14.16;53.84
60087;BME280;45960;53.630;55.972;2023-05-23T01:38:44;101354.97;;;14.18;53.89
60087;BME280;45960;53.630;55.972;2023-05-23T01:39:45;101355.72;;;14.20;53.89
60087;BME280;45960;53.630;55.972;2023-05-23T01:40:47;101360.03;;;14.22;53.93
60087;BME280;45960;53.630;55.972;2023-05-23T01:41:49;101358.03;;;14.26;54.03
60087;BME280;45960;53.630;55.972;2023-05-23T01:42:53;101363.22;;;14.29;54.05
60087;BME280;45960;53.630;55.972;2023-05-23T01:43:55;101368.38;;;14.32;53.88
60087;BME280;45960;53.630;55.972;2023-05-23T01:44:56;101355.72;;;14.34;54.07
60087;BME280;45960;53.630;55.972;2023-05-23T01:45:59;101368.84;;;14.39;53.68
60087;BME280;45960;53.630;55.972;2023-05-23T01:47:06;101369.50;;;14.42;53.43
60087;BME280;45960;53.630;55.972;2023-05-23T01:48:08;101366.66;;;14.45;53.07
60087;BME280;45960;53.630;55.972;2023-05-23T01:49:12;101360.69;;;14.40;52.32
60087;BME280;45960;53.630;55.972;2023-05-23T01:50:15;101374.53;;;14.48;51.98
60087;BME280;45960;53.630;55.972;2023-05-23T01:51:17;101378.94;;;14.49;51.63
60087;BME280;45960;53.630;55.972;2023-05-23T01:52:19;101372.56;;;14.50;51.26
60087;BME280;45960;53.630;55.972;2023-05-23T01:53:22;101374.16;;;14.54;50.93
60087;BME280;45960;53.630;55.972;2023-05-23T01:54:24;101383.00;;;14.57;50.80
60087;BME280;45960;53.630;55.972;2023-05-23T01:55:25;101372.03;;;14.60;50.45
60087;BME280;45960;53.630;55.972;2023-05-23T01:56:27;101377.22;;;14.63;50.28
60087;BME280;45960;53.630;55.972;2023-05-23T01:57:29;101382.38;;;14.66;50.24
60087;BME280;45960;53.630;55.972;2023-05-23T01:58:30;101391.22;;;14.68;49.97
60087;BME280;45960;53.630;55.972;2023-05-23T01:59:31;101380.28;;;14.71;49.57
60087;BME280;45960;53.630;55.972;2023-05-23T02:00:33;101378.31;;;14.73;49.36
60087;BME280;45960;53.630;55.972;2023-05-23T02:01:34;101384.38;;;14.76;49.00
60087;BME280;45960;53.630;55.972;2023-05-23T02:02:35;101381.38;;;14.81;49.19
60087;BME280;45960;53.630;55.972;2023-05-23T02:03:37;101378.59;;;14.83;49.07
60087;BME280;45960;53.630;55.972;2023-05-23T02:04:45;101393.88;;;14.82;48.86
60087;BME280;45960;53.630;55.972;2023-05-23T02:05:46;101386.56;;;14.84;48.53
60087;BME280;45960;53.630;55.972;2023-05-23T02:06:47;101387.44;;;14.85;48.52
60087;BME280;45960;53.630;55.972;2023-05-23T02:07:48;101385.50;;;14.87;48.72
60087;BME280;45960;53.630;55.972;2023-05-23T02:08:51;101384.53;;;14.88;48.29
60087;BME280;45960;53.630;55.972;2023-05-23T02:09:53;101379.91;;;14.90;48.09
60087;BME280;45960;53.630;55.972;2023-05-23T02:10:54;101387.69;;;14.94;48.18
60087;BME280;45960;53.630;55.972;2023-05-23T02:11:56;101387.47;;;14.97;48.28
60087;BME280;45960;53.630;55.972;2023-05-23T02:12:56;101380.06;;;15.01;48.14
60087;BME280;45960;53.630;55.972;2023-05-23T02:13:58;101387.97;;;15.04;48.17
60087;BME280;45960;53.630;55.972;2023-05-23T02:14:59;101379.75;;;15.06;47.92
60087;BME280;45960;53.630;55.972;2023-05-23T02:16:00;101386.84;;;15.07;47.75
60087;BME280;45960;53.630;55.972;2023-05-23T02:17:01;101392.06;;;15.10;47.45
60087;BME280;45960;53.630;55.972;2023-05-23T02:18:04;101384.72;;;15.12;47.59
60087;BME280;45960;53.630;55.972;2023-05-23T02:19:06;101391.66;;;15.16;47.75
60087;BME280;45960;53.630;55.972;2023-05-23T02:20:07;101386.06;;;15.19;47.43
60087;BME280;45960;53.630;55.972;2023-05-23T02:21:09;101392.00;;;15.24;47.43
60087;BME280;45960;53.630;55.972;2023-05-23T02:22:11;101388.34;;;15.25;47.33
60087;BME280;45960;53.630;55.972;2023-05-23T02:23:14;101387.19;;;15.29;47.13
60087;BME280;45960;53.630;55.972;2023-05-23T02:24:15;101386.09;;;15.32;47.13
60087;BME280;45960;53.630;55.972;2023-05-23T02:25:16;101387.69;;;15.34;47.20
60087;BME280;45960;53.630;55.972;2023-05-23T02:26:17;101384.81;;;15.37;46.92
60087;BME280;45960;53.630;55.972;2023-05-23T02:27:18;101383.22;;;15.35;46.88
60087;BME280;45960;53.630;55.972;2023-05-23T02:28:19;101396.91;;;15.44;47.09
60087;BME280;45960;53.630;55.972;2023-05-23T02:29:23;101399.50;;;15.46;46.99
60087;BME280;45960;53.630;55.972;2023-05-23T02:30:24;101388.59;;;15.48;47.01
60087;BME280;45960;53.630;55.972;2023-05-23T02:31:25;101392.72;;;15.53;47.14
60087;BME280;45960;53.630;55.972;2023-05-23T02:32:27;101392.41;;;15.58;47.17
60087;BME280;45960;53.630;55.972;2023-05-23T02:33:30;101398.66;;;15.58;47.19
60087;BME280;45960;53.630;55.972;2023-05-23T02:34:32;101395.84;;;15.60;46.94
60087;BME280;45960;53.630;55.972;2023-05-23T02:35:33;101393.69;;;15.65;46.75
60087;BME280;45960;53.630;55.972;2023-05-23T02:36:34;101398.91;;;15.68;46.79
60087;BME280;45960;53.630;55.972;2023-05-23T02:37:37;101395.91;;;15.73;46.95
60087;BME280;45960;53.630;55.972;2023-05-23T02:38:38;101399.03;;;15.79;47.16
60087;BME280;45960;53.630;55.972;2023-05-23T02:39:39;101404.22;;;15.82;47.24
60087;BME280;45960;53.630;55.972;2023-05-23T02:40:40;101390.53;;;15.85;47.26
60087;BME280;45960;53.630;55.972;2023-05-23T02:41:42;101400.13;;;15.89;47.13
60087;BME280;45960;53.630;55.972;2023-05-23T02:42:43;101400.66;;;15.95;46.92
60087;BME280;45960;53.630;55.972;2023-05-23T02:43:46;101393.66;;;15.92;46.92
60087;BME280;45960;53.630;55.972;2023-05-23T02:44:47;101397.44;;;16.02;46.80
60087;BME280;45960;53.630;55.972;2023-05-23T02:45:48;101404.22;;;16.08;46.71
60087;BME280;45960;53.630;55.972;2023-05-23T02:46:49;101406.59;;;16.13;46.90
60087;BME280;45960;53.630;55.972;2023-05-23T02:47:52;101403.56;;;16.17;46.89
60087;BME280;45960;53.630;55.972;2023-05-23T02:48:53;101402.50;;;16.20;47.00
60087;BME280;45960;53.630;55.972;2023-05-23T02:49:54;101407.53;;;16.24;46.93
60087;BME280;45960;53.630;55.972;2023-05-23T02:50:55;101409.06;;;16.28;46.63
60087;BME280;45960;53.630;55.972;2023-05-23T02:51:56;101408.84;;;16.31;46.60
60087;BME280;45960;53.630;55.972;2023-05-23T02:52:57;101405.16;;;16.32;46.51
60087;BME280;45960;53.630;55.972;2023-05-23T02:53:58;101406.69;;;16.37;46.28
60087;BME280;45960;53.630;55.972;2023-05-23T02:55:00;101401.06;;;16.40;46.37
60087;BME280;45960;53.630;55.972;2023-05-23T02:56:04;101411.63;;;16.43;46.49
60087;BME280;45960;53.630;55.972;2023-05-23T02:57:05;101406.00;;;16.46;46.28
60087;BME280;45960;53.630;55.972;2023-05-23T02:58:09;101397.16;;;16.44;46.35
60087;BME280;45960;53.630;55.972;2023-05-23T02:59:10;101393.50;;;16.45;46.30
60087;BME280;45960;53.630;55.972;2023-05-23T03:00:12;101407.09;;;16.56;46.10
60087;BME280;45960;53.630;55.972;2023-05-23T03:01:16;101410.41;;;16.60;46.19
60087;BME280;45960;53.630;55.972;2023-05-23T03:02:17;101402.94;;;16.63;46.32
60087;BME280;45960;53.630;55.972;2023-05-23T03:03:18;101403.47;;;16.68;46.41
60087;BME280;45960;53.630;55.972;2023-05-23T03:04:20;101407.47;;;16.75;46.33
60087;BME280;45960;53.630;55.972;2023-05-23T03:05:21;101399.94;;;16.81;46.35
60087;BME280;45960;53.630;55.972;2023-05-23T03:06:22;101404.88;;;16.87;46.18
60087;BME280;45960;53.630;55.972;2023-05-23T03:07:23;101401.81;;;16.91;46.06
60087;BME280;45960;53.630;55.972;2023-05-23T03:08:25;101408.72;;;16.95;45.88
60087;BME280;45960;53.630;55.972;2023-05-23T03:09:26;101398.56;;;16.99;45.96
60087;BME280;45960;53.630;55.972;2023-05-23T03:10:28;101410.88;;;17.03;46.00
60087;BME280;45960;53.630;55.972;2023-05-23T03:11:29;101403.25;;;17.08;45.99
60087;BME280;45960;53.630;55.972;2023-05-23T03:12:30;101407.34;;;17.14;46.31
60087;BME280;45960;53.630;55.972;2023-05-23T03:13:31;101409.69;;;17.18;46.31
60087;BME280;45960;53.630;55.972;2023-05-23T03:14:33;101397.56;;;17.24;46.00
60087;BME280;45960;53.630;55.972;2023-05-23T03:15:34;101402.63;;;17.29;45.86
60087;BME280;45960;53.630;55.972;2023-05-23T03:16:35;101403.88;;;17.36;45.53
60087;BME280;45960;53.630;55.972;2023-05-23T03:17:36;101398.13;;;17.40;45.56
60087;BME280;45960;53.630;55.972;2023-05-23T03:18:37;101403.19;;;17.45;45.71
60087;BME280;45960;53.630;55.972;2023-05-23T03:19:38;101410.84;;;17.51;45.56
60087;BME280;45960;53.630;55.972;2023-05-23T03:20:39;101402.25;;;17.57;45.38
60087;BME280;45960;53.630;55.972;2023-05-23T03:21:40;101399.06;;;17.63;45.39
60087;BME280;45960;53.630;55.972;2023-05-23T03:22:41;101404.00;;;17.70;45.52
60087;BME280;45960;53.630;55.972;2023-05-23T03:23:45;101407.22;;;17.75;45.52
60087;BME280;45960;53.630;55.972;2023-05-23T03:24:46;101408.50;;;17.82;45.74
60087;BME280;45960;53.630;55.972;2023-05-23T03:25:47;101411.72;;;17.87;45.71
60087;BME280;45960;53.630;55.972;2023-05-23T03:26:48;101411.22;;;17.93;45.75
60087;BME280;45960;53.630;55.972;2023-05-23T03:27:49;101407.28;;;17.97;44.95
60087;BME280;45960;53.630;55.972;2023-05-23T03:28:51;101408.53;;;18.04;44.54
60087;BME280;45960;53.630;55.972;2023-05-23T03:29:53;101411.59;;;18.11;44.33
60087;BME280;45960;53.630;55.972;2023-05-23T03:30:54;101405.84;;;18.16;44.09
60087;BME280;45960;53.630;55.972;2023-05-23T03:31:55;101403.66;;;18.21;44.19
60087;BME280;45960;53.630;55.972;2023-05-23T03:32:56;101408.56;;;18.27;44.17
60087;BME280;45960;53.630;55.972;2023-05-23T03:33:57;101413.22;;;18.36;44.38
60087;BME280;45960;53.630;55.972;2023-05-23T03:34:58;101394.78;;;18.41;44.55
60087;BME280;45960;53.630;55.972;2023-05-23T03:36:00;101406.72;;;18.50;44.58
60087;BME280;45960;53.630;55.972;2023-05-23T03:37:01;101406.19;;;18.56;44.54
60087;BME280;45960;53.630;55.972;2023-05-23T03:38:02;101409.41;;;18.61;44.39
60087;BME280;45960;53.630;55.972;2023-05-23T03:39:03;101402.63;;;18.67;44.53
60087;BME280;45960;53.630;55.972;2023-05-23T03:40:06;101401.19;;;18.74;44.35
60087;BME280;45960;53.630;55.972;2023-05-23T03:41:08;101406.09;;;18.80;44.13
60087;BME280;45960;53.630;55.972;2023-05-23T03:42:09;101393.31;;;18.82;44.10
60087;BME280;45960;53.630;55.972;2023-05-23T03:43:11;101399.66;;;18.92;44.09
60087;BME280;45960;53.630;55.972;2023-05-23T03:44:14;101400.88;;;18.99;43.75
60087;BME280;45960;53.630;55.972;2023-05-23T03:45:15;101404.94;;;19.05;43.40
60087;BME280;45960;53.630;55.972;2023-05-23T03:46:17;101397.13;;;19.12;42.91
60087;BME280;45960;53.630;55.972;2023-05-23T03:47:19;101399.31;;;19.18;42.72
60087;BME280;45960;53.630;55.972;2023-05-23T03:48:20;101396.25;;;19.22;43.00
60087;BME280;45960;53.630;55.972;2023-05-23T03:49:22;101396.47;;;19.31;42.94
60087;BME280;45960;53.630;55.972;2023-05-23T03:50:23;101395.81;;;19.38;43.00
60087;BME280;45960;53.630;55.972;2023-05-23T03:51:24;101398.00;;;19.44;42.41
60087;BME280;45960;53.630;55.972;2023-05-23T03:52:25;101397.47;;;19.51;42.25
60087;BME280;45960;53.630;55.972;2023-05-23T03:53:26;101397.94;;;19.56;42.00
60087;BME280;45960;53.630;55.972;2023-05-23T03:54:28;101397.41;;;19.62;42.15
60087;BME280;45960;53.630;55.972;2023-05-23T03:55:30;101402.34;;;19.68;42.19
60087;BME280;45960;53.630;55.972;2023-05-23T03:56:32;101393.66;;;19.74;41.86
60087;BME280;45960;53.630;55.972;2023-05-23T03:57:33;101400.28;;;19.81;41.47
60087;BME280;45960;53.630;55.972;2023-05-23T03:58:34;101395.06;;;19.89;41.59
60087;BME280;45960;53.630;55.972;2023-05-23T03:59:41;101392.66;;;19.96;41.38
60087;BME280;45960;53.630;55.972;2023-05-23T04:00:45;101395.56;;;20.04;41.59
60087;BME280;45960;53.630;55.972;2023-05-23T04:01:48;101388.63;;;20.11;41.38
60087;BME280;45960;53.630;55.972;2023-05-23T04:02:49;101399.50;;;20.21;40.84
60087;BME280;45960;53.630;55.972;2023-05-23T04:03:53;101393.53;;;20.27;40.17
60087;BME280;45960;53.630;55.972;2023-05-23T04:04:56;101393.03;;;20.33;40.12
60087;BME280;45960;53.630;55.972;2023-05-23T04:05:58;101393.19;;;20.42;39.89
60087;BME280;45960;53.630;55.972;2023-05-23T04:07:00;101395.22;;;20.49;39.87
60087;BME280;45960;53.630;55.972;2023-05-23T04:08:03;101392.69;;;20.58;39.60
60087;BME280;45960;53.630;55.972;2023-05-23T04:09:04;101390.56;;;20.61;39.85
60087;BME280;45960;53.630;55.972;2023-05-23T04:10:09;101391.44;;;20.71;39.44
60087;BME280;45960;53.630;55.972;2023-05-23T04:11:11;101391.75;;;20.78;39.51
60087;BME280;45960;53.630;55.972;2023-05-23T04:12:15;101393.03;;;20.84;39.18
60087;BME280;45960;53.630;55.972;2023-05-23T04:13:16;101394.94;;;20.93;38.93
60087;BME280;45960;53.630;55.972;2023-05-23T04:15:23;101390.09;;;21.06;38.72
60087;BME280;45960;53.630;55.972;2023-05-23T04:16:28;101392.94;;;21.14;38.75
60087;BME280;45960;53.630;55.972;2023-05-23T04:17:33;101394.09;;;21.21;38.80
60087;BME280;45960;53.630;55.972;2023-05-23T04:18:35;101376.50;;;21.26;38.75
60087;BME280;45960;53.630;55.972;2023-05-23T04:19:39;101389.97;;;21.37;38.62
60087;BME280;45960;53.630;55.972;2023-05-23T04:20:41;101391.13;;;21.44;38.24
60087;BME280;45960;53.630;55.972;2023-05-23T04:21:42;101394.13;;;21.51;37.95
60087;BME280;45960;53.630;55.972;2023-05-23T04:22:45;101398.28;;;21.55;37.68
60087;BME280;45960;53.630;55.972;2023-05-23T04:23:46;101401.28;;;21.61;37.92
60087;BME280;45960;53.630;55.972;2023-05-23T04:24:48;101391.84;;;21.65;37.75
60087;BME280;45960;53.630;55.972;2023-05-23T04:25:50;101387.53;;;21.73;37.51
60087;BME280;45960;53.630;55.972;2023-05-23T04:27:05;101398.53;;;21.81;37.52
60087;BME280;45960;53.630;55.972;2023-05-23T04:28:07;101401.56;;;21.87;37.10
60087;BME280;45960;53.630;55.972;2023-05-23T04:29:10;101399.22;;;21.93;36.88
60087;BME280;45960;53.630;55.972;2023-05-23T04:30:12;101411.81;;;22.03;36.98
60087;BME280;45960;53.630;55.972;2023-05-23T04:31:16;101404.06;;;22.08;36.76
60087;BME280;45960;53.630;55.972;2023-05-23T04:32:17;101410.78;;;22.14;36.43
60087;BME280;45960;53.630;55.972;2023-05-23T04:33:19;101402.22;;;22.19;36.52
60087;BME280;45960;53.630;55.972;2023-05-23T04:34:20;101411.47;;;22.26;36.55
60087;BME280;45960;53.630;55.972;2023-05-23T04:35:22;101412.63;;;22.33;36.58
60087;BME280;45960;53.630;55.972;2023-05-23T04:36:23;101407.13;;;22.43;36.92
60087;BME280;45960;53.630;55.972;2023-05-23T04:37:28;101411.97;;;22.49;35.74
60087;BME280;45960;53.630;55.972;2023-05-23T04:38:29;101407.09;;;22.52;35.01
60087;BME280;45960;53.630;55.972;2023-05-23T04:39:31;101409.91;;;22.61;34.81
60087;BME280;45960;53.630;55.972;2023-05-23T04:40:51;101409.00;;;22.70;35.13
60087;BME280;45960;53.630;55.972;2023-05-23T04:42:30;101408.38;;;22.76;34.93
60087;BME280;45960;53.630;55.972;2023-05-23T04:43:47;101409.19;;;22.86;34.50
60087;BME280;45960;53.630;55.972;2023-05-23T04:45:08;101411.03;;;22.95;33.68
60087;BME280;45960;53.630;55.972;2023-05-23T04:46:30;101403.25;;;23.00;33.28
60087;BME280;45960;53.630;55.972;2023-05-23T04:48:03;101412.53;;;23.08;32.12
60087;BME280;45960;53.630;55.972;2023-05-23T04:49:15;101412.25;;;23.11;31.74
60087;BME280;45960;53.630;55.972;2023-05-23T04:50:17;101413.31;;;23.18;31.82
60087;BME280;45960;53.630;55.972;2023-05-23T04:51:19;101405.22;;;23.26;32.28
60087;BME280;45960;53.630;55.972;2023-05-23T04:52:27;101406.00;;;23.36;31.71
60087;BME280;45960;53.630;55.972;2023-05-23T04:53:30;101407.09;;;23.43;31.27
60087;BME280;45960;53.630;55.972;2023-05-23T04:54:32;101398.13;;;23.51;31.21
60087;BME280;45960;53.630;55.972;2023-05-23T04:55:36;101402.63;;;23.60;31.34
60087;BME280;45960;53.630;55.972;2023-05-23T04:56:37;101397.97;;;23.71;31.93
60087;BME280;45960;53.630;55.972;2023-05-23T04:57:40;101400.78;;;23.79;31.89
60087;BME280;45960;53.630;55.972;2023-05-23T04:58:41;101397.53;;;23.83;31.45
60087;BME280;45960;53.630;55.972;2023-05-23T04:59:45;101396.53;;;23.84;31.26
60087;BME280;45960;53.630;55.972;2023-05-23T05:00:46;101392.31;;;23.90;31.09
60087;BME280;45960;53.630;55.972;2023-05-23T05:01:49;101393.94;;;24.01;30.88
60087;BME280;45960;53.630;55.972;2023-05-23T05:02:51;101391.41;;;24.07;31.05
60087;BME280;45960;53.630;55.972;2023-05-23T05:03:52;101385.16;;;24.15;30.85
60087;BME280;45960;53.630;55.972;2023-05-23T05:04:53;101392.72;;;24.29;30.47
60087;BME280;45960;53.630;55.972;2023-05-23T05:05:54;101398.94;;;24.40;30.75
60087;BME280;45960;53.630;55.972;2023-05-23T05:06:56;101399.69;;;24.50;30.93
60087;BME280;45960;53.630;55.972;2023-05-23T05:07:57;101392.38;;;24.59;31.17
60087;BME280;45960;53.630;55.972;2023-05-23T05:08:58;101400.25;;;24.70;31.08
60087;BME280;45960;53.630;55.972;2023-05-23T05:09:59;101401.84;;;24.81;30.93
60087;BME280;45960;53.630;55.972;2023-05-23T05:11:00;101389.59;;;24.93;31.96
60087;BME280;45960;53.630;55.972;2023-05-23T05:12:01;101395.75;;;25.03;31.44
60087;BME280;45960;53.630;55.972;2023-05-23T05:13:03;101393.03;;;25.11;31.30
60087;BME280;45960;53.630;55.972;2023-05-23T05:14:13;101378.38;;;25.12;30.57
60087;BME280;45960;53.630;55.972;2023-05-23T05:15:17;101391.06;;;25.30;30.46
60087;BME280;45960;53.630;55.972;2023-05-23T05:16:21;101393.81;;;25.38;29.95
60087;BME280;45960;53.630;55.972;2023-05-23T05:17:24;101393.13;;;25.44;29.92
60087;BME280;45960;53.630;55.972;2023-05-23T05:18:38;101394.13;;;25.51;29.59
60087;BME280;45960;53.630;55.972;2023-05-23T05:19:40;101392.25;;;25.60;29.58
60087;BME280;45960;53.630;55.972;2023-05-23T05:20:41;101397.56;;;25.70;29.45
60087;BME280;45960;53.630;55.972;2023-05-23T05:21:42;101397.38;;;25.79;29.45
60087;BME280;45960;53.630;55.972;2023-05-23T05:22:44;101395.53;;;25.88;29.40
60087;BME280;45960;53.630;55.972;2023-05-23T05:23:46;101394.47;;;25.97;29.49
60087;BME280;45960;53.630;55.972;2023-05-23T05:24:50;101391.72;;;26.05;28.94
60087;BME280;45960;53.630;55.972;2023-05-23T05:25:51;101387.25;;;26.12;28.74
60087;BME280;45960;53.630;55.972;2023-05-23T05:26:53;101400.94;;;26.21;28.42
60087;BME280;45960;53.630;55.972;2023-05-23T05:27:54;101387.22;;;26.29;29.09
60087;BME280;45960;53.630;55.972;2023-05-23T05:28:56;101393.69;;;26.36;28.69
60087;BME280;45960;53.630;55.972;2023-05-23T05:29:58;101385.47;;;26.44;28.76
60087;BME280;45960;53.630;55.972;2023-05-23T05:31:06;101394.69;;;26.51;28.04
60087;BME280;45960;53.630;55.972;2023-05-23T05:32:10;101389.53;;;26.56;28.26